Time;durP1;ratioP1;P1;durP2;ratioP2;P2;SDS_P1;SDS_P2;PMS_P1;PMS_P2;Temp;Humidity;BMP_temperature;BMP_pressure;BME280_temperature;BME280_humidity;BME280_pressure;Samples;Min_cycle;Max_cycle;Signal;HPM_P1;HPM_P2
2021/09/23 10:56:45;;;;;;;5.40;4.90;;;16.30;99.90;;;;;;5070649;28;20557;-81
2021/09/23 10:59:11;;;;;;;8.32;5.78;;;16.30;99.90;;;;;;5070701;28;20176;-84
2021/09/23 11:01:37;;;;;;;6.47;5.38;;;16.30;99.90;;;;;;5070593;28;20652;-82
2021/09/23 11:04:03;;;;;;;9.45;5.07;;;16.40;99.90;;;;;;5070569;28;20176;-82
2021/09/23 11:06:32;;;;;;;10.80;4.78;;;16.40;99.90;;;;;;5070548;28;20282;-82
2021/09/23 11:09:14;;;;;;;11.20;5.00;;;16.40;99.90;;;;;;5070519;28;20200;-82
2021/09/23 11:11:39;;;;;;;5.15;4.75;;;16.40;99.90;;;;;;5069192;28;20259;-83
2021/09/23 11:14:06;;;;;;;5.10;4.70;;;16.50;99.90;;;;;;5070371;28;20657;-84
2021/09/23 11:16:32;;;;;;;7.43;4.90;;;16.50;99.90;;;;;;5070298;28;20279;-82
2021/09/23 11:18:59;;;;;;;7.05;4.50;;;16.50;99.90;;;;;;5070275;28;20521;-77
2021/09/23 11:21:25;;;;;;;6.88;4.95;;;16.60;99.90;;;;;;5070222;28;20164;-77
2021/09/23 11:23:51;;;;;;;5.70;4.50;;;16.70;99.90;;;;;;5070163;28;20175;-77
2021/09/23 11:26:17;;;;;;;4.75;4.03;;;16.70;99.90;;;;;;5070133;28;20557;-77
2021/09/23 11:28:44;;;;;;;6.40;4.40;;;16.80;99.90;;;;;;5070129;28;20187;-78
2021/09/23 11:31:09;;;;;;;6.05;4.10;;;16.80;99.90;;;;;;5069997;28;20648;-77
2021/09/23 11:33:41;;;;;;;4.97;4.25;;;16.90;99.90;;;;;;5070074;28;20181;-73
2021/09/23 11:36:07;;;;;;;3.88;3.53;;;17.00;99.90;;;;;;5069810;28;20249;-72
2021/09/23 11:38:32;;;;;;;5.28;4.57;;;17.00;99.90;;;;;;5069849;28;20525;-72
2021/09/23 11:40:58;;;;;;;4.80;4.50;;;17.00;99.90;;;;;;5069777;28;20192;-76
2021/09/23 11:43:34;;;;;;;9.73;4.78;;;17.10;99.90;;;;;;5069898;28;20554;-76
2021/09/23 11:45:59;;;;;;;5.78;4.85;;;17.20;99.90;;;;;;5069739;28;20176;-77
2021/09/23 11:48:29;;;;;;;4.45;4.15;;;17.20;99.90;;;;;;5069659;28;20177;-77
2021/09/23 11:51:01;;;;;;;4.25;3.67;;;17.30;99.90;;;;;;5069516;28;20164;-77
2021/09/23 11:53:32;;;;;;;4.75;4.35;;;17.30;99.90;;;;;;5069566;28;20265;-77
2021/09/23 11:56:02;;;;;;;5.22;4.35;;;17.40;99.90;;;;;;5069269;28;20299;-77
2021/09/23 11:58:30;;;;;;;3.60;3.40;;;17.50;99.90;;;;;;5069473;28;20519;-76
2021/09/23 12:00:56;;;;;;;8.50;4.53;;;17.60;99.90;;;;;;5069357;28;20169;-76
2021/09/23 12:03:23;;;;;;;5.43;3.58;;;17.60;99.90;;;;;;5069307;28;20168;-76
2021/09/23 12:05:51;;;;;;;4.35;3.97;;;17.60;99.90;;;;;;5069160;28;20164;-76
2021/09/23 12:08:18;;;;;;;6.15;4.15;;;17.70;99.90;;;;;;5055511;28;20210;-76
2021/09/23 12:10:55;;;;;;;4.65;4.25;;;17.60;99.90;;;;;;5054738;28;20177;-76
2021/09/23 12:13:38;;;;;;;4.88;4.43;;;17.60;99.90;;;;;;5056044;28;20165;-76
2021/09/23 12:16:05;;;;;;;9.45;4.90;;;17.70;99.90;;;;;;5055976;28;20196;-76
2021/09/23 12:18:31;;;;;;;4.43;3.67;;;17.70;99.90;;;;;;5055913;28;20169;-76
2021/09/23 12:20:59;;;;;;;4.47;4.07;;;17.80;99.90;;;;;;5055849;28;20618;-76
2021/09/23 12:23:32;;;;;;;8.27;4.68;;;17.80;99.90;;;;;;5055804;28;20215;-76
2021/09/23 12:26:08;;;;;;;4.63;4.22;;;17.80;99.90;;;;;;5055751;28;20173;-77
2021/09/23 12:28:39;;;;;;;5.93;4.32;;;17.90;99.90;;;;;;5054439;28;20200;-76
2021/09/23 12:31:07;;;;;;;4.90;4.57;;;18.00;99.90;;;;;;5055557;28;20654;-76
2021/09/23 12:33:33;;;;;;;5.72;4.43;;;18.10;99.90;;;;;;5055663;28;20252;-76
2021/09/23 12:36:13;;;;;;;6.07;4.68;;;18.20;99.90;;;;;;5055539;28;20226;-76
2021/09/23 12:38:46;;;;;;;6.45;4.53;;;18.30;99.90;;;;;;5055587;28;20641;-77
2021/09/23 12:41:19;;;;;;;5.45;4.93;;;18.30;99.90;;;;;;5055362;28;20193;-76
2021/09/23 12:43:46;;;;;;;6.70;5.32;;;18.40;99.90;;;;;;5055449;28;20203;-78
2021/09/23 12:46:15;;;;;;;6.25;5.05;;;18.40;99.90;;;;;;5055404;28;20180;-77
2021/09/23 12:48:43;;;;;;;8.65;5.57;;;18.40;99.90;;;;;;5055289;28;20169;-77
2021/09/23 12:51:10;;;;;;;13.38;5.70;;;18.50;99.90;;;;;;5055138;28;20165;-77
2021/09/23 12:53:36;;;;;;;7.82;5.07;;;18.50;99.90;;;;;;5055304;28;20220;-77
2021/09/23 12:56:06;;;;;;;7.85;4.75;;;18.60;99.90;;;;;;5055030;28;20335;-77
2021/09/23 12:58:32;;;;;;;6.93;4.60;;;18.70;99.90;;;;;;5055205;28;20200;-78
2021/09/23 13:00:58;;;;;;;9.15;4.40;;;18.80;99.90;;;;;;5055076;28;20200;-80
2021/09/23 13:03:29;;;;;;;12.23;4.70;;;18.90;99.90;;;;;;5055072;28;20545;-79
2021/09/23 13:06:06;;;;;;;5.68;4.25;;;19.00;99.90;;;;;;5054938;28;20173;-79
2021/09/23 13:08:47;;;;;;;6.50;4.53;;;19.10;99.90;;;;;;5054992;28;20169;-79
2021/09/23 13:11:16;;;;;;;7.15;5.07;;;19.10;99.90;;;;;;5054909;28;20165;-79
2021/09/23 13:13:43;;;;;;;4.70;4.38;;;19.20;99.90;;;;;;5054919;28;20206;-79
2021/09/23 13:16:10;;;;;;;7.50;3.88;;;19.20;99.90;;;;;;5054661;28;20653;-80
2021/09/23 13:18:35;;;;;;;5.32;4.70;;;19.30;99.90;;;;;;5053789;28;20182;-80
2021/09/23 13:21:07;;;;;;;6.13;4.30;;;19.30;99.90;;;;;;5054718;28;20630;-80
2021/09/23 13:23:40;;;;;;;6.18;4.35;;;19.40;99.90;;;;;;5053443;28;20192;-80
2021/09/23 13:26:11;;;;;;;5.13;4.63;;;19.60;99.90;;;;;;5054612;28;20164;-76
2021/09/23 13:28:41;;;;;;;6.15;4.65;;;19.60;99.90;;;;;;5054545;28;20211;-77
2021/09/23 13:31:12;;;;;;;13.32;5.63;;;19.80;99.90;;;;;;5054577;28;20294;-78
2021/09/23 13:33:39;;;;;;;5.50;5.00;;;19.80;99.90;;;;;;5054438;28;20199;-79
2021/09/23 13:36:05;;;;;;;5.22;4.70;;;19.80;99.90;;;;;;5053128;28;20749;-81
2021/09/23 13:38:33;;;;;;;5.05;4.47;;;19.80;99.90;;;;;;5054355;28;20207;-82
2021/09/23 13:41:01;;;;;;;11.82;4.65;;;19.70;99.90;;;;;;5054277;28;20180;-82
2021/09/23 13:43:27;;;;;;;6.32;5.05;;;19.70;99.90;;;;;;5053112;28;20175;-82
2021/09/23 13:45:54;;;;;;;9.15;4.40;;;19.70;99.90;;;;;;5054233;28;20582;-78
2021/09/23 13:48:23;;;;;;;5.95;4.30;;;19.60;99.90;;;;;;5054170;28;20176;-87
2021/09/23 13:50:49;;;;;;;4.20;3.65;;;19.80;99.90;;;;;;5052688;28;20180;-79
2021/09/23 13:53:15;;;;;;;4.05;3.75;;;19.80;99.90;;;;;;5054100;28;20225;-80
2021/09/23 13:55:41;;;;;;;3.80;3.50;;;19.90;99.90;;;;;;5053785;28;20262;-79
2021/09/23 13:58:06;;;;;;;3.95;3.42;;;19.90;99.90;;;;;;5054042;28;20232;-81
2021/09/23 14:00:34;;;;;;;4.53;4.22;;;20.10;99.90;;;;;;5054130;28;20168;-81
2021/09/23 14:03:00;;;;;;;5.82;3.67;;;20.20;99.90;;;;;;5053895;28;20190;-82
2021/09/23 14:05:26;;;;;;;6.20;3.85;;;20.30;99.90;;;;;;5052569;28;20176;-82
2021/09/23 14:07:52;;;;;;;4.15;3.88;;;20.20;99.90;;;;;;5053840;28;20176;-83
2021/09/23 14:10:17;;;;;;;3.42;3.20;;;20.30;99.90;;;;;;5053815;28;20184;-81
2021/09/23 14:12:44;;;;;;;6.28;4.07;;;20.30;99.90;;;;;;5053676;28;20169;-81
2021/09/23 14:15:12;;;;;;;6.22;4.20;;;20.30;99.90;;;;;;5053625;28;20280;-71
2021/09/23 14:17:38;;;;;;;6.75;4.05;;;20.30;99.90;;;;;;5053617;28;20525;-79
2021/09/23 14:20:06;;;;;;;3.95;3.45;;;20.10;99.90;;;;;;5053579;28;20525;-77
2021/09/23 14:22:32;;;;;;;6.28;4.00;;;20.10;99.90;;;;;;5053387;28;20247;-79
2021/09/23 14:24:57;;;;;;;10.07;4.93;;;20.10;99.90;;;;;;5053484;28;20180;-79
2021/09/23 14:27:23;;;;;;;6.85;5.22;;;20.00;99.90;;;;;;5053529;28;20168;-79
2021/09/23 14:29:58;;;;;;;7.07;4.70;;;20.00;99.90;;;;;;5052612;28;20696;-79
2021/09/23 14:32:25;;;;;;;4.57;4.18;;;20.00;99.90;;;;;;5052259;28;20184;-79
2021/09/23 14:34:51;;;;;;;6.47;3.80;;;20.10;99.90;;;;;;5053383;28;20673;-79
2021/09/23 14:37:17;;;;;;;10.80;4.57;;;20.20;99.90;;;;;;5053410;28;20222;-78
2021/09/23 14:39:49;;;;;;;4.13;3.83;;;20.20;99.90;;;;;;5054914;28;20630;-78
2021/09/23 14:42:16;;;;;;;9.10;4.53;;;20.30;99.90;;;;;;5053586;28;20236;-79
2021/09/23 14:44:42;;;;;;;5.90;4.65;;;20.20;99.90;;;;;;5053688;28;20636;-79
2021/09/23 14:47:08;;;;;;;4.15;3.85;;;20.00;99.90;;;;;;5053212;28;20204;-80
2021/09/23 14:49:33;;;;;;;4.43;4.13;;;19.80;99.90;;;;;;5052012;28;20195;-79
2021/09/23 14:51:59;;;;;;;12.13;4.82;;;19.60;99.90;;;;;;5053142;28;20172;-80
2021/09/23 14:54:25;;;;;;;5.38;4.28;;;19.60;99.90;;;;;;5052931;28;20636;-80
2021/09/23 14:56:50;;;;;;;7.25;4.40;;;19.40;99.90;;;;;;5053221;28;20172;-80
2021/09/23 14:59:16;;;;;;;8.27;4.88;;;19.40;99.90;;;;;;5053160;28;20161;-79
2021/09/23 15:01:43;;;;;;;9.70;4.70;;;19.20;99.90;;;;;;5053500;28;20165;-80
2021/09/23 15:04:21;;;;;;;5.55;4.90;;;19.10;99.90;;;;;;5053247;28;20257;-79
2021/09/23 15:06:47;;;;;;;7.50;5.70;;;19.00;99.90;;;;;;5053034;28;20178;-86
2021/09/23 15:09:13;;;;;;;17.77;5.82;;;18.80;99.90;;;;;;5052019;28;20267;-81
2021/09/23 15:11:39;;;;;;;8.98;5.63;;;18.70;99.90;;;;;;5051780;28;20169;-81
2021/09/23 15:14:05;;;;;;;7.97;5.65;;;18.70;99.90;;;;;;5051852;28;20186;-81
2021/09/23 15:16:30;;;;;;;6.90;5.00;;;18.60;99.90;;;;;;5052944;28;20270;-82
2021/09/23 15:18:56;;;;;;;6.60;5.43;;;18.60;99.90;;;;;;5051723;28;20176;-81
2021/09/23 15:21:22;;;;;;;5.78;5.32;;;18.40;99.90;;;;;;5051885;28;20180;-80
2021/09/23 15:23:49;;;;;;;8.43;5.45;;;18.30;99.90;;;;;;5051811;28;20173;-84
2021/09/23 15:26:15;;;;;;;5.88;5.20;;;18.30;99.90;;;;;;5051644;28;20177;-82
2021/09/23 15:28:41;;;;;;;6.95;5.30;;;18.20;99.90;;;;;;5052823;28;20220;-80
2021/09/23 15:31:09;;;;;;;8.38;5.45;;;18.20;99.90;;;;;;5052888;28;20674;-81
2021/09/23 15:33:35;;;;;;;8.85;4.95;;;18.10;99.90;;;;;;5052746;28;20188;-79
2021/09/23 15:36:04;;;;;;;4.28;3.95;;;18.20;99.90;;;;;;5052680;28;20224;-84
2021/09/23 15:38:30;;;;;;;4.70;4.30;;;18.10;99.90;;;;;;5052795;28;20559;-83
2021/09/23 15:40:56;;;;;;;9.45;5.07;;;18.10;99.90;;;;;;5051433;28;20196;-83
2021/09/23 16:22:59;;;;;;;8.38;7.22;;;18.20;99.90;;;;;;5090913;27;20550;-83
2021/09/23 16:25:26;;;;;;;9.68;8.23;;;17.30;99.90;;;;;;5090907;28;20244;-83
2021/09/23 16:27:52;;;;;;;12.40;7.95;;;17.40;99.90;;;;;;5090779;28;20164;-84
2021/09/23 16:30:18;;;;;;;13.63;7.50;;;17.30;99.90;;;;;;5090842;28;20700;-82
2021/09/23 16:32:44;;;;;;;8.48;7.68;;;17.40;99.90;;;;;;5090599;28;20203;-81
